Aérodrome :
LOGIN :

S'inscrire | Disclaimer

   EN    FR    IT 

 










Légende :    VFR   VFR Marginal   IFR   IFR Intensif   IFR Très Intensif
Visi : 
Plafond : 
>= 8 km
>= 3000ft
5 à 8 km
1000 à 3000 ft
1500m à 5 km
500 à 1000 ft
800 à 1500m
200 à 500 ft
< 800m
< 200 ft
Symboles :   Orages  Brouillard  Fortes neiges  Fortes précipitations  Vent > 20 kt
SIGMETs :   Divers  Orages  Givrage  Turbulence  Onde Orograph.  Cendres Volcan.







- Altitude de l'aérodrome : 512 ft
- Code IATA : URO
- Voir les cartes d'approche


LFOP - Rouen Vallée de Seine

DERNIER METAR :
  • 242300Z AUTO 00000KT 3100 BR NSC 11/10 Q1017

METARs EXPIRÉS :
  • 242230Z AUTO 32002KT 2800 0900 R22/1300D BCFG FEW005 11/11 Q1017
  • 242200Z AUTO 09001KT 3500 BR NSC 11/10 Q1017
  • 242130Z AUTO 33002KT 3300 BR NSC 12/11 Q1017
  • 242100Z AUTO 30001KT 3700 BR NSC 13/11 Q1017
  • 242030Z AUTO 01003KT 4400 BR NSC 14/12 Q1017

TAF TAF LFOP
Valide du 24 à 18h jusqu'au 25 à 18h UTC


241700Z 2418/2518 VRB03KT 9999 SCT030
BECMG 2421/2424 3000 BR
BECMG 2500/2504 0200 FG VV///
BECMG 2506/2509 4000 BR OVC007
BECMG 2509/2512 9999 NSW SCT030
TEMPO 2512/2518 3000 SHRA BKN040CB
PROB40
TEMPO 2516/2518 VRB25G40KT 1000 TSGRRA
ATIS : +33 2 35 80 80 34
Météo : +33 2 32 86 52 80
Pas de NOTAMs connus pour ce terrain.



MET'MAP, la Météo Aéronautique d'un coup d'oeil ! - Copyright ORBIFLY Décembre 2007 - Disclaimer

ORBIFLY MET'MAP TEAM :

Programmation & Développement : Alexandra Zaïnal
Conception & Développement : Baudouin d'Aumeries
Co-Programmation & Développement : Marc-Olivier Méhu
Soutien technique & logistique : Manuel Goepfert

Contact : metmap@orbifly.com




SOURCES & CREDITS :

   NOAA